Time;durP1;ratioP1;P1;durP2;ratioP2;P2;SDS_P1;SDS_P2;PMS_P1;PMS_P2;Temp;Humidity;BMP_temperature;BMP_pressure;BME280_temperature;BME280_humidity;BME280_pressure;Samples;Min_cycle;Max_cycle;Signal;HPM_P1;HPM_P2
2021/06/23 00:01:07;;;;;;;3.95;3.55;;;19.50;99.90;;;;;;5092907;28;20197;-69
2021/06/23 00:03:34;;;;;;;6.30;5.53;;;19.50;99.90;;;;;;5111902;28;20205;-69
2021/06/23 00:06:01;;;;;;;3.70;3.40;;;19.50;99.90;;;;;;5110454;28;20540;-69
2021/06/23 00:08:29;;;;;;;7.55;3.88;;;19.50;99.90;;;;;;5112250;28;20201;-69
2021/06/23 00:10:56;;;;;;;3.50;3.30;;;19.40;99.90;;;;;;5111001;28;20197;-69
2021/06/23 00:13:23;;;;;;;5.13;3.90;;;19.40;99.90;;;;;;5092650;28;20563;-69
2021/06/23 00:15:49;;;;;;;4.80;3.95;;;19.40;99.90;;;;;;5104756;28;20193;-69
2021/06/23 00:18:16;;;;;;;3.88;3.58;;;19.40;99.90;;;;;;5091939;28;20889;-69
2021/06/23 00:20:43;;;;;;;3.63;3.03;;;19.40;99.90;;;;;;5104346;28;20200;-69
2021/06/23 00:23:10;;;;;;;4.15;3.75;;;19.40;99.90;;;;;;5112045;28;20708;-69
2021/06/23 00:25:38;;;;;;;4.13;3.72;;;19.40;99.90;;;;;;5094204;28;20205;-69
2021/06/23 00:28:05;;;;;;;4.75;3.72;;;19.40;99.90;;;;;;5091412;28;20209;-69
2021/06/23 00:30:32;;;;;;;4.25;3.85;;;19.40;99.90;;;;;;5092269;28;20545;-69
2021/06/23 00:33:06;;;;;;;4.65;3.58;;;19.30;99.90;;;;;;5091972;28;20901;-69
2021/06/23 00:35:33;;;;;;;5.88;5.20;;;19.30;99.90;;;;;;5091798;28;20538;-69
2021/06/23 00:37:59;;;;;;;3.95;3.65;;;19.30;99.90;;;;;;5101897;28;20226;-69
2021/06/23 00:40:26;;;;;;;6.00;3.70;;;19.30;99.90;;;;;;5095368;28;20868;-69
2021/06/23 00:42:54;;;;;;;4.68;3.67;;;19.30;99.90;;;;;;5111278;28;20227;-69
2021/06/23 00:45:21;;;;;;;4.45;4.05;;;19.30;99.90;;;;;;5110441;28;20845;-69
2021/06/23 00:47:50;;;;;;;4.20;3.47;;;19.30;99.90;;;;;;5104526;28;20197;-69
2021/06/23 00:50:18;;;;;;;4.30;3.90;;;19.30;99.90;;;;;;5091980;28;20289;-69
2021/06/23 00:52:45;;;;;;;4.95;4.43;;;19.30;99.90;;;;;;5091524;28;20283;-68
2021/06/23 00:55:20;;;;;;;6.22;4.55;;;19.30;99.90;;;;;;5091241;28;20197;-68
2021/06/23 00:57:49;;;;;;;4.05;3.75;;;19.30;99.90;;;;;;5103453;28;20220;-68
2021/06/23 01:00:19;;;;;;;4.78;4.03;;;19.20;99.90;;;;;;5111996;28;20211;-68
2021/06/23 01:02:47;;;;;;;3.90;3.58;;;19.20;99.90;;;;;;5103636;28;20266;-68
2021/06/23 01:05:14;;;;;;;4.53;3.95;;;19.20;99.90;;;;;;5092380;28;20212;-67
2021/06/23 01:07:41;;;;;;;5.65;4.57;;;19.30;99.90;;;;;;5110373;28;20206;-68
2021/06/23 01:10:08;;;;;;;4.65;3.50;;;19.20;99.90;;;;;;5115212;28;20201;-68
2021/06/23 01:12:52;;;;;;;5.00;4.53;;;19.20;99.90;;;;;;5114842;28;20208;-67
2021/06/23 01:15:20;;;;;;;5.32;3.97;;;19.20;99.90;;;;;;5106008;28;20212;-67
2021/06/23 01:17:49;;;;;;;4.95;4.45;;;19.20;99.90;;;;;;5096722;28;20197;-67
2021/06/23 01:20:16;;;;;;;3.65;3.35;;;19.20;99.90;;;;;;5114986;28;20211;-68
2021/06/23 01:22:46;;;;;;;3.83;3.53;;;19.20;99.90;;;;;;5105654;28;20742;-68
2021/06/23 01:25:14;;;;;;;4.72;4.32;;;19.10;99.90;;;;;;5094145;28;20288;-67
2021/06/23 01:27:42;;;;;;;3.65;3.35;;;19.10;99.90;;;;;;5093896;28;20198;-68
2021/06/23 01:30:10;;;;;;;4.03;3.63;;;19.10;99.90;;;;;;5093600;28;20212;-68
2021/06/23 01:32:38;;;;;;;4.82;3.88;;;19.10;99.90;;;;;;5093203;28;20630;-70
2021/06/23 01:35:05;;;;;;;3.65;3.35;;;19.10;99.90;;;;;;5093791;28;20197;-68
2021/06/23 01:37:32;;;;;;;5.90;4.90;;;19.10;99.90;;;;;;5107076;28;20192;-67
2021/06/23 01:40:00;;;;;;;4.60;4.20;;;19.10;99.90;;;;;;5114960;28;20199;-67
2021/06/23 01:42:27;;;;;;;4.57;4.18;;;19.10;99.90;;;;;;5107454;28;20202;-67
2021/06/23 01:44:54;;;;;;;5.28;4.10;;;19.00;99.90;;;;;;5094159;28;20221;-67
2021/06/23 01:47:21;;;;;;;7.28;4.85;;;19.00;99.90;;;;;;5112406;28;20207;-68
2021/06/23 01:49:48;;;;;;;3.75;3.45;;;19.00;99.90;;;;;;5114543;28;20630;-70
2021/06/23 01:52:15;;;;;;;5.43;3.65;;;19.00;99.90;;;;;;5090110;28;20225;-68
2021/06/23 01:54:42;;;;;;;4.47;4.13;;;19.00;99.90;;;;;;5095083;28;20197;-69
2021/06/23 01:57:11;;;;;;;6.13;4.63;;;19.00;99.90;;;;;;5094413;28;20610;-69
2021/06/23 01:59:39;;;;;;;5.20;4.00;;;19.00;99.90;;;;;;5113675;28;20193;-68
2021/06/23 02:02:14;;;;;;;4.50;4.10;;;19.00;99.90;;;;;;5100020;28;20900;-69
2021/06/23 02:04:49;;;;;;;4.95;4.50;;;19.00;99.90;;;;;;5101000;28;20291;-69
2021/06/23 02:08:00;;;;;;;4.22;3.92;;;19.00;99.90;;;;;;5110681;28;20192;-69
2021/06/23 02:10:50;;;;;;;4.40;4.00;;;18.90;99.90;;;;;;5110635;28;20200;-69
2021/06/23 02:14:01;;;;;;;4.88;4.43;;;18.90;99.90;;;;;;5097107;28;20272;-69
2021/06/23 02:16:28;;;;;;;3.80;3.50;;;18.90;99.90;;;;;;5092225;28;20205;-69
2021/06/23 02:19:01;;;;;;;4.15;3.75;;;18.90;99.90;;;;;;5093448;28;20557;-69
2021/06/23 02:21:29;;;;;;;5.72;4.45;;;18.90;99.90;;;;;;5093414;28;20689;-69
2021/06/23 02:23:56;;;;;;;5.80;3.50;;;18.80;99.90;;;;;;5092626;28;20228;-70
2021/06/23 02:26:25;;;;;;;5.22;3.38;;;18.80;99.90;;;;;;5110581;28;20559;-69
2021/06/23 02:28:53;;;;;;;4.40;4.07;;;18.80;99.90;;;;;;5104969;28;20197;-69
2021/06/23 02:31:20;;;;;;;4.47;4.07;;;18.80;99.90;;;;;;5113568;28;20204;-69
2021/06/23 02:33:47;;;;;;;4.63;4.28;;;18.70;99.90;;;;;;5103062;28;20932;-70
2021/06/23 02:36:14;;;;;;;5.45;4.90;;;18.80;99.90;;;;;;5113029;28;20204;-70
2021/06/23 02:38:41;;;;;;;5.47;4.95;;;18.70;99.90;;;;;;5103330;28;20196;-70
2021/06/23 02:41:08;;;;;;;7.63;4.90;;;18.70;99.90;;;;;;5110527;28;20196;-70
2021/06/23 02:43:35;;;;;;;5.75;4.25;;;18.70;99.90;;;;;;5099063;28;20213;-69
2021/06/23 02:46:03;;;;;;;4.18;3.88;;;18.70;99.90;;;;;;5093368;28;20205;-70
2021/06/23 02:48:30;;;;;;;5.82;4.80;;;18.70;99.90;;;;;;5102178;28;20193;-70
2021/06/23 02:51:02;;;;;;;4.97;4.47;;;18.70;99.90;;;;;;5096705;28;20645;-69
2021/06/23 02:53:30;;;;;;;5.47;4.60;;;18.70;99.90;;;;;;5093543;28;20198;-69
2021/06/23 02:55:58;;;;;;;5.53;4.35;;;18.70;99.90;;;;;;5094772;28;20197;-69
2021/06/23 02:58:26;;;;;;;5.95;5.22;;;18.70;99.90;;;;;;5097282;28;20233;-69
2021/06/23 03:00:53;;;;;;;4.40;3.75;;;18.70;99.90;;;;;;5093771;28;20193;-69
2021/06/23 03:03:21;;;;;;;5.50;3.90;;;18.70;99.90;;;;;;5093190;28;20224;-70
2021/06/23 03:05:48;;;;;;;5.20;4.70;;;18.60;99.90;;;;;;5099327;28;20204;-69
2021/06/23 03:08:15;;;;;;;4.78;4.38;;;18.60;99.90;;;;;;5107024;28;20220;-69
2021/06/23 03:10:42;;;;;;;5.00;4.10;;;18.70;99.90;;;;;;5103199;28;20251;-69
2021/06/23 03:13:08;;;;;;;7.90;3.85;;;18.60;99.90;;;;;;5093084;28;20549;-69
2021/06/23 03:15:35;;;;;;;6.97;4.43;;;18.60;99.90;;;;;;5103001;28;20192;-69
2021/06/23 03:18:04;;;;;;;5.00;4.60;;;18.60;99.90;;;;;;5112026;28;20200;-69
2021/06/23 03:20:32;;;;;;;4.85;3.60;;;18.60;99.90;;;;;;5113318;28;20657;-69
2021/06/23 03:22:59;;;;;;;7.22;4.28;;;18.60;99.90;;;;;;5101429;28;20201;-69
2021/06/23 03:25:26;;;;;;;4.10;3.75;;;18.50;99.90;;;;;;5102640;28;20217;-69
2021/06/23 03:27:53;;;;;;;4.47;3.67;;;18.50;99.90;;;;;;5111946;28;20502;-69
2021/06/23 03:30:21;;;;;;;4.53;3.65;;;18.60;99.90;;;;;;5111124;28;20196;-70
2021/06/23 03:32:48;;;;;;;6.43;4.25;;;18.60;99.90;;;;;;5092689;28;20205;-70
2021/06/23 03:35:16;;;;;;;5.00;4.07;;;18.60;99.90;;;;;;5100952;28;20625;-69
2021/06/23 03:37:44;;;;;;;7.13;4.60;;;18.60;99.90;;;;;;5112344;28;20204;-69
2021/06/23 03:40:11;;;;;;;6.10;4.50;;;18.50;99.90;;;;;;5111730;28;20193;-69
2021/06/23 03:42:38;;;;;;;3.80;3.50;;;18.50;99.90;;;;;;5105478;28;20204;-69
2021/06/23 03:45:06;;;;;;;4.68;4.13;;;18.50;99.90;;;;;;5098931;28;20221;-69
2021/06/23 03:47:33;;;;;;;5.13;4.40;;;18.40;99.90;;;;;;5094084;28;20193;-69
2021/06/23 03:50:00;;;;;;;6.60;4.70;;;18.50;99.90;;;;;;5091985;28;20208;-69
2021/06/23 03:52:27;;;;;;;6.35;4.30;;;18.40;99.90;;;;;;5092221;28;20209;-69
2021/06/23 03:54:55;;;;;;;4.07;3.78;;;18.50;99.90;;;;;;5094391;28;20626;-69
2021/06/23 03:57:21;;;;;;;5.78;3.70;;;18.40;99.90;;;;;;5092084;28;20244;-69
2021/06/23 03:59:48;;;;;;;5.70;3.85;;;18.40;99.90;;;;;;5092472;28;20201;-69
2021/06/23 04:02:15;;;;;;;4.80;4.40;;;18.40;99.90;;;;;;5092406;28;20205;-69
2021/06/23 04:04:41;;;;;;;7.38;4.40;;;18.40;99.90;;;;;;5091928;28;20220;-69
2021/06/23 04:07:08;;;;;;;5.65;3.42;;;18.40;99.90;;;;;;5091109;28;20212;-69
2021/06/23 04:09:35;;;;;;;4.65;3.80;;;18.40;99.90;;;;;;5092585;28;20560;-69
2021/06/23 04:12:03;;;;;;;4.00;3.70;;;18.30;99.90;;;;;;5091576;28;20572;-69
2021/06/23 04:14:30;;;;;;;4.63;4.22;;;18.40;99.90;;;;;;5095602;28;20202;-69
2021/06/23 04:16:57;;;;;;;3.92;3.30;;;18.30;99.90;;;;;;5110970;28;20197;-69
2021/06/23 04:19:24;;;;;;;4.28;3.95;;;18.30;99.90;;;;;;5096506;28;20259;-70
2021/06/23 04:21:51;;;;;;;7.32;4.05;;;18.30;99.90;;;;;;5090927;28;20200;-69
2021/06/23 04:24:18;;;;;;;4.38;3.72;;;18.30;99.90;;;;;;5098926;28;20221;-70
2021/06/23 04:26:45;;;;;;;5.53;4.00;;;18.40;99.90;;;;;;5090476;28;20749;-68
2021/06/23 04:29:13;;;;;;;4.85;4.05;;;18.40;99.90;;;;;;5091068;28;20205;-69
2021/06/23 04:31:41;;;;;;;4.75;3.85;;;18.30;99.90;;;;;;5091185;28;20194;-69
2021/06/23 04:34:07;;;;;;;6.28;4.70;;;18.30;99.90;;;;;;5095297;28;20185;-68
2021/06/23 04:36:34;;;;;;;5.50;4.32;;;18.30;99.90;;;;;;5091509;28;20681;-69
2021/06/23 04:39:01;;;;;;;6.20;4.05;;;18.30;99.90;;;;;;5092594;28;20202;-69
2021/06/23 04:41:27;;;;;;;4.15;3.75;;;18.30;99.90;;;;;;5108677;28;20208;-69
2021/06/23 04:43:54;;;;;;;4.30;3.90;;;18.30;99.90;;;;;;5110413;28;20217;-69
2021/06/23 04:46:22;;;;;;;4.78;4.25;;;18.30;99.90;;;;;;5095412;28;20193;-69
2021/06/23 04:48:49;;;;;;;4.20;3.80;;;18.20;99.90;;;;;;5102905;28;20215;-69
2021/06/23 04:51:17;;;;;;;4.30;3.95;;;18.20;99.90;;;;;;5106434;28;20204;-69
2021/06/23 04:53:44;;;;;;;4.60;3.85;;;18.30;99.90;;;;;;5099203;28;20584;-69
2021/06/23 04:56:11;;;;;;;4.65;4.10;;;18.30;99.90;;;;;;5104642;28;20197;-69
2021/06/23 04:58:37;;;;;;;5.57;3.80;;;18.30;99.90;;;;;;5097115;28;20224;-69
2021/06/23 05:01:04;;;;;;;4.90;4.38;;;18.30;99.90;;;;;;5095115;28;20208;-69
2021/06/23 05:03:32;;;;;;;4.38;4.00;;;18.20;99.90;;;;;;5097548;28;20200;-69
2021/06/23 05:06:00;;;;;;;5.10;3.85;;;18.20;99.90;;;;;;5099495;28;20213;-69
2021/06/23 05:08:27;;;;;;;3.92;3.47;;;18.30;99.90;;;;;;5098546;28;20196;-69
2021/06/23 05:10:54;;;;;;;4.70;4.07;;;18.30;99.90;;;;;;5115160;28;20247;-68
2021/06/23 05:13:21;;;;;;;4.97;4.47;;;18.30;99.90;;;;;;5114150;28;20215;-68
2021/06/23 05:15:48;;;;;;;5.03;4.53;;;18.30;99.90;;;;;;5094391;28;20212;-69
2021/06/23 05:18:16;;;;;;;4.30;3.47;;;18.30;99.90;;;;;;5095809;28;20263;-69
2021/06/23 05:20:44;;;;;;;5.45;4.18;;;18.30;99.90;;;;;;5094389;28;20208;-69
2021/06/23 05:23:11;;;;;;;4.05;3.70;;;18.40;99.90;;;;;;5094417;28;20562;-69
2021/06/23 05:25:37;;;;;;;4.00;3.58;;;18.30;99.90;;;;;;5094373;28;20233;-69
2021/06/23 05:28:05;;;;;;;4.65;4.00;;;18.30;99.90;;;;;;5094527;28;20549;-69
2021/06/23 05:30:31;;;;;;;3.70;3.40;;;18.30;99.90;;;;;;5114166;28;20211;-69
2021/06/23 05:32:58;;;;;;;7.00;4.50;;;18.30;99.90;;;;;;5095557;28;20205;-68
2021/06/23 05:35:25;;;;;;;4.35;3.70;;;18.30;99.90;;;;;;5109453;28;20196;-68
2021/06/23 05:37:53;;;;;;;3.70;3.40;;;18.30;99.90;;;;;;5105046;28;20204;-69
2021/06/23 05:40:20;;;;;;;7.15;4.60;;;18.30;99.90;;;;;;5098637;28;20561;-69
2021/06/23 05:42:47;;;;;;;4.55;3.80;;;18.30;99.90;;;;;;5101675;28;20537;-69
2021/06/23 05:45:14;;;;;;;5.13;4.05;;;18.40;99.90;;;;;;5107372;28;20251;-69
2021/06/23 05:47:41;;;;;;;14.88;6.00;;;18.40;99.90;;;;;;5112736;28;20205;-69
2021/06/23 05:50:09;;;;;;;4.53;3.90;;;18.40;99.90;;;;;;5094072;28;20568;-69
2021/06/23 05:52:36;;;;;;;6.57;4.57;;;18.40;99.90;;;;;;5093492;28;20197;-69
2021/06/23 05:55:04;;;;;;;4.40;3.70;;;18.40;99.90;;;;;;5102064;28;20193;-69
2021/06/23 05:57:31;;;;;;;5.13;3.55;;;18.40;99.90;;;;;;5093832;28;20612;-69
2021/06/23 05:59:58;;;;;;;5.53;3.97;;;18.40;99.90;;;;;;5093946;28;20201;-69
2021/06/23 06:02:25;;;;;;;5.40;3.80;;;18.50;99.90;;;;;;5093964;28;20208;-69
2021/06/23 06:04:51;;;;;;;5.90;3.70;;;18.50;99.90;;;;;;5101383;28;20692;-69
2021/06/23 06:07:18;;;;;;;5.63;3.47;;;18.40;99.90;;;;;;5093748;28;20205;-68
2021/06/23 06:09:45;;;;;;;4.43;4.03;;;18.40;99.90;;;;;;5093797;28;20208;-69
2021/06/23 06:12:13;;;;;;;3.78;3.25;;;18.50;99.90;;;;;;5093694;28;20197;-68
2021/06/23 06:14:40;;;;;;;3.55;3.33;;;18.50;99.90;;;;;;5101797;28;20193;-69
2021/06/23 06:17:06;;;;;;;5.38;3.72;;;18.40;99.90;;;;;;5113449;28;20188;-69
2021/06/23 06:19:33;;;;;;;6.40;3.75;;;18.50;99.90;;;;;;5112463;28;20629;-69
2021/06/23 06:22:00;;;;;;;4.63;3.50;;;18.50;99.90;;;;;;5113957;28;20224;-69
2021/06/23 06:24:26;;;;;;;4.65;3.50;;;18.50;99.90;;;;;;5105205;28;20209;-69
2021/06/23 06:26:53;;;;;;;3.35;3.05;;;18.50;99.90;;;;;;5094604;28;20198;-69
2021/06/23 06:29:21;;;;;;;4.78;3.10;;;18.60;99.90;;;;;;5093210;28;20201;-69
2021/06/23 06:31:48;;;;;;;6.30;3.20;;;18.50;99.90;;;;;;5104983;28;20637;-69
2021/06/23 06:34:14;;;;;;;6.25;3.65;;;18.50;99.90;;;;;;5107595;28;20220;-69
2021/06/23 06:36:42;;;;;;;3.65;3.00;;;18.60;99.90;;;;;;5094382;28;20201;-69
2021/06/23 06:39:09;;;;;;;5.03;2.90;;;18.60;99.90;;;;;;5094100;28;20565;-69
2021/06/23 06:41:36;;;;;;;4.82;2.97;;;18.60;99.90;;;;;;5107698;28;20197;-69
2021/06/23 06:44:03;;;;;;;8.05;2.90;;;18.60;99.90;;;;;;5108994;28;20194;-68
2021/06/23 06:46:31;;;;;;;9.63;4.75;;;18.50;99.90;;;;;;5093841;28;20657;-69
2021/06/23 06:48:57;;;;;;;5.57;2.95;;;18.50;99.90;;;;;;5094055;28;20193;-69
2021/06/23 06:51:24;;;;;;;4.05;3.05;;;18.50;99.90;;;;;;5113350;28;20616;-69
2021/06/23 06:53:51;;;;;;;4.60;3.30;;;18.50;99.90;;;;;;5096310;28;20201;-69
2021/06/23 06:56:17;;;;;;;11.18;3.70;;;18.50;99.90;;;;;;5093428;28;20189;-69
2021/06/23 06:58:44;;;;;;;8.18;3.35;;;18.50;99.90;;;;;;5092793;28;20688;-69
2021/06/23 07:01:11;;;;;;;4.20;3.05;;;18.50;99.90;;;;;;5111658;28;20227;-69
2021/06/23 07:03:39;;;;;;;5.13;3.95;;;18.50;99.90;;;;;;5109602;28;20197;-69
2021/06/23 07:06:05;;;;;;;4.55;2.92;;;18.50;99.90;;;;;;5093526;28;20221;-69
2021/06/23 07:08:32;;;;;;;6.03;3.25;;;18.50;99.90;;;;;;5092282;28;20197;-69
2021/06/23 07:10:59;;;;;;;5.10;3.10;;;18.50;99.90;;;;;;5101595;28;20192;-69
2021/06/23 07:13:26;;;;;;;6.35;2.75;;;18.50;99.90;;;;;;5099254;28;20212;-69
2021/06/23 07:15:52;;;;;;;4.47;2.75;;;18.60;99.90;;;;;;5101408;28;20193;-69
2021/06/23 07:18:19;;;;;;;4.38;2.95;;;18.60;99.90;;;;;;5112220;28;20189;-69
2021/06/23 07:20:47;;;;;;;5.93;3.28;;;18.70;99.90;;;;;;5103859;28;20514;-69
2021/06/23 07:23:14;;;;;;;3.55;2.63;;;18.70;99.90;;;;;;5092199;28;20205;-69
2021/06/23 07:25:40;;;;;;;3.00;2.70;;;18.80;99.90;;;;;;5092108;28;20213;-69
2021/06/23 07:28:09;;;;;;;5.07;3.80;;;18.80;99.90;;;;;;5093196;28;20193;-69
2021/06/23 07:30:36;;;;;;;2.88;2.65;;;18.80;99.90;;;;;;5100231;28;20198;-69
2021/06/23 07:33:05;;;;;;;3.75;2.78;;;18.90;99.90;;;;;;5093168;28;20213;-69
2021/06/23 07:38:17;;;;;;;7.72;2.90;;;19.00;99.90;;;;;;5092872;28;20644;-70
2021/06/23 07:40:50;;;;;;;3.63;2.80;;;19.00;99.90;;;;;;5093900;28;20193;-69
2021/06/23 07:43:18;;;;;;;5.40;2.75;;;19.10;99.90;;;;;;5092392;28;20208;-69
2021/06/23 07:45:48;;;;;;;2.97;2.40;;;19.10;99.90;;;;;;5093031;28;20416;-69
2021/06/23 07:48:14;;;;;;;4.85;2.65;;;19.10;99.90;;;;;;5092389;28;20201;-69
2021/06/23 07:50:46;;;;;;;5.35;2.63;;;19.10;99.90;;;;;;5105683;28;20229;-69
2021/06/23 07:53:19;;;;;;;5.60;3.35;;;19.20;99.90;;;;;;5092828;28;20182;-69
2021/06/23 07:55:51;;;;;;;4.63;2.88;;;19.20;99.90;;;;;;5093741;28;20189;-69
2021/06/23 08:09:17;;;;;;;4.05;2.45;;;19.80;99.90;;;;;;5095231;28;20226;-69
2021/06/23 08:11:49;;;;;;;3.15;2.70;;;19.90;99.90;;;;;;5092326;28;20201;-69
2021/06/23 08:14:16;;;;;;;2.60;2.40;;;20.10;99.90;;;;;;5091768;28;20193;-69
2021/06/23 08:16:43;;;;;;;5.88;2.90;;;20.20;99.90;;;;;;5108531;28;20515;-69
2021/06/23 08:19:10;;;;;;;2.47;2.20;;;20.30;99.90;;;;;;5095422;28;20584;-69
2021/06/23 08:21:37;;;;;;;3.22;1.92;;;20.40;99.90;;;;;;5104014;28;20199;-69
2021/06/23 08:24:05;;;;;;;4.38;2.35;;;20.50;99.90;;;;;;5100475;28;20237;-69
2021/06/23 08:26:31;;;;;;;4.45;2.80;;;20.60;99.90;;;;;;5093022;28;20216;-69
2021/06/23 08:28:59;;;;;;;4.80;2.53;;;20.60;99.90;;;;;;5092309;28;20193;-70
2021/06/23 08:31:26;;;;;;;3.60;1.73;;;20.60;99.90;;;;;;5092136;28;20216;-69
2021/06/23 08:33:54;;;;;;;5.82;2.53;;;20.60;99.90;;;;;;5099538;28;20197;-69
2021/06/23 08:36:21;;;;;;;5.20;2.13;;;20.70;99.90;;;;;;5112569;28;20197;-69
2021/06/23 08:38:47;;;;;;;2.75;1.83;;;20.70;99.90;;;;;;5107358;28;20194;-69
2021/06/23 08:41:15;;;;;;;3.92;2.70;;;20.80;99.90;;;;;;5101319;28;20215;-69
2021/06/23 08:43:42;;;;;;;5.85;2.88;;;20.90;99.90;;;;;;5105970;28;20190;-69
2021/06/23 08:46:10;;;;;;;5.97;3.17;;;20.90;99.90;;;;;;5091740;28;20245;-69
2021/06/23 08:48:38;;;;;;;3.03;2.40;;;21.00;99.90;;;;;;5094712;28;20194;-69
2021/06/23 08:51:06;;;;;;;6.45;2.55;;;21.00;99.90;;;;;;5112093;28;20208;-69
2021/06/23 08:53:34;;;;;;;3.58;3.15;;;21.00;99.90;;;;;;5107825;28;20204;-70
2021/06/23 08:56:01;;;;;;;6.90;3.45;;;21.00;99.90;;;;;;5114379;28;20212;-69
2021/06/23 08:58:27;;;;;;;5.05;3.55;;;20.90;99.90;;;;;;5096021;28;20236;-69
2021/06/23 09:00:54;;;;;;;3.75;2.88;;;20.90;99.90;;;;;;5112305;28;20201;-69
2021/06/23 09:03:22;;;;;;;3.53;2.63;;;21.00;99.90;;;;;;5107918;28;20197;-69
2021/06/23 09:05:51;;;;;;;3.38;2.70;;;21.00;99.90;;;;;;5091711;28;20226;-69
2021/06/23 09:08:30;;;;;;;4.45;2.00;;;21.00;99.90;;;;;;5098563;28;20525;-69
2021/06/23 09:10:58;;;;;;;5.45;3.60;;;20.90;99.90;;;;;;5090499;28;20201;-69
2021/06/23 09:13:25;;;;;;;5.25;2.72;;;21.00;99.90;;;;;;5096252;28;20742;-70
2021/06/23 09:15:55;;;;;;;6.78;3.38;;;21.00;99.90;;;;;;5111359;28;20196;-69
2021/06/23 09:18:25;;;;;;;4.72;2.67;;;21.00;99.90;;;;;;5109138;28;20210;-69
2021/06/23 09:20:53;;;;;;;4.45;2.20;;;21.10;99.90;;;;;;5111150;28;20243;-69
2021/06/23 09:23:37;;;;;;;3.72;2.60;;;21.00;99.90;;;;;;5106718;28;20205;-69
2021/06/23 09:26:12;;;;;;;3.05;2.65;;;21.00;99.90;;;;;;5111258;28;20212;-69
2021/06/23 09:28:40;;;;;;;6.55;3.42;;;21.00;99.90;;;;;;5103733;28;20193;-69
2021/06/23 09:31:07;;;;;;;6.38;3.55;;;21.00;99.90;;;;;;5100051;28;20200;-69
2021/06/23 09:33:35;;;;;;;2.70;2.25;;;21.00;99.90;;;;;;5114859;28;20215;-69
2021/06/23 09:36:04;;;;;;;4.22;2.97;;;21.00;99.90;;;;;;5114959;28;20204;-68
2021/06/23 09:38:37;;;;;;;3.83;3.20;;;21.00;99.90;;;;;;5094842;28;20193;-67
2021/06/23 09:41:06;;;;;;;5.97;3.20;;;21.00;99.90;;;;;;5096734;28;20202;-70
2021/06/23 09:43:38;;;;;;;5.57;3.47;;;21.00;99.90;;;;;;5113695;28;20204;-67
2021/06/23 09:46:21;;;;;;;2.85;2.65;;;21.00;99.90;;;;;;5115415;28;20227;-68
2021/06/23 09:48:50;;;;;;;5.70;4.60;;;21.00;99.90;;;;;;5094622;28;20201;-70
2021/06/23 09:51:18;;;;;;;11.50;3.87;;;20.90;99.90;;;;;;5095153;28;20216;-70
2021/06/23 09:53:46;;;;;;;7.78;3.92;;;20.90;99.90;;;;;;5095862;28;20960;-69
2021/06/23 09:56:32;;;;;;;9.45;3.60;;;20.90;99.90;;;;;;5106642;28;20641;-70
2021/06/23 09:59:00;;;;;;;6.97;3.90;;;20.90;99.90;;;;;;5094560;28;20673;-70
2021/06/23 10:01:27;;;;;;;3.92;3.60;;;21.00;99.90;;;;;;5094749;28;20189;-70
2021/06/23 10:03:58;;;;;;;4.28;3.42;;;21.00;99.90;;;;;;5095648;28;20200;-70
2021/06/23 10:06:26;;;;;;;10.15;3.65;;;21.00;99.90;;;;;;5094490;28;20213;-70
2021/06/23 10:09:11;;;;;;;6.25;4.68;;;21.00;99.90;;;;;;5097650;28;20542;-72
2021/06/23 10:11:38;;;;;;;9.40;3.63;;;21.00;99.90;;;;;;5094431;28;20181;-72
2021/06/23 10:14:07;;;;;;;4.03;2.90;;;21.00;99.90;;;;;;5097059;28;20258;-71
2021/06/23 10:16:34;;;;;;;4.03;3.60;;;21.10;99.90;;;;;;5113374;28;20206;-71
2021/06/23 10:19:03;;;;;;;4.53;2.97;;;21.10;99.90;;;;;;5093905;28;20190;-71
2021/06/23 10:21:31;;;;;;;4.50;4.07;;;21.10;99.90;;;;;;5093415;28;20200;-71
2021/06/23 10:23:58;;;;;;;6.85;3.88;;;21.20;99.90;;;;;;5095225;28;20193;-71
2021/06/23 10:26:26;;;;;;;3.03;2.72;;;21.20;99.90;;;;;;5093873;28;20213;-71
2021/06/23 10:28:55;;;;;;;3.50;3.15;;;21.20;99.90;;;;;;5109639;28;20244;-71
2021/06/23 10:31:23;;;;;;;5.15;3.17;;;21.20;99.90;;;;;;5109620;28;20515;-71
2021/06/23 10:33:50;;;;;;;4.55;3.17;;;21.30;99.90;;;;;;5106540;28;20204;-71
2021/06/23 10:36:19;;;;;;;5.38;2.80;;;21.30;99.90;;;;;;5113441;28;20197;-72
2021/06/23 10:38:47;;;;;;;4.53;2.78;;;21.30;99.90;;;;;;5106322;28;20212;-71
2021/06/23 10:41:16;;;;;;;4.30;3.05;;;21.40;99.90;;;;;;5107039;28;20227;-70
2021/06/23 10:43:43;;;;;;;6.47;2.95;;;21.40;99.90;;;;;;5101179;28;20215;-71
2021/06/23 10:46:11;;;;;;;7.10;3.92;;;21.40;99.90;;;;;;5109860;28;20277;-71
2021/06/23 10:48:55;;;;;;;4.90;2.78;;;21.40;99.90;;;;;;5099021;28;20202;-71
2021/06/23 10:51:27;;;;;;;5.72;3.50;;;21.40;99.90;;;;;;5110454;28;20196;-72
2021/06/23 10:53:54;;;;;;;4.22;3.25;;;21.40;99.90;;;;;;5113228;28;20211;-72
2021/06/23 10:56:41;;;;;;;3.78;3.30;;;21.50;99.90;;;;;;5111189;28;20203;-72
2021/06/23 10:59:32;;;;;;;4.10;3.30;;;21.50;99.90;;;;;;5109972;28;20588;-71
2021/06/23 11:02:10;;;;;;;4.13;3.00;;;21.50;99.90;;;;;;5095139;28;20513;-71
2021/06/23 11:05:13;;;;;;;5.18;3.78;;;21.50;99.90;;;;;;5094941;28;20274;-70
2021/06/23 11:07:44;;;;;;;3.13;2.80;;;21.50;99.90;;;;;;5021358;28;20203;-71
2021/06/23 11:10:34;;;;;;;5.00;4.32;;;21.60;99.90;;;;;;5080009;28;20208;-70
2021/06/23 11:13:03;;;;;;;6.00;4.35;;;21.60;99.90;;;;;;5101145;28;20208;-70
2021/06/23 11:15:38;;;;;;;4.13;3.70;;;21.60;99.90;;;;;;5114243;28;20215;-70
2021/06/23 11:18:34;;;;;;;5.55;4.57;;;21.60;99.90;;;;;;5101646;28;20237;-70
2021/06/23 11:21:04;;;;;;;7.15;3.65;;;21.60;99.90;;;;;;5053865;28;20205;-72
2021/06/23 11:23:58;;;;;;;4.05;3.75;;;21.60;99.90;;;;;;5093569;28;20195;-71
2021/06/23 11:27:00;;;;;;;7.75;3.80;;;21.60;99.90;;;;;;5103006;28;20231;-70
2021/06/23 11:29:34;;;;;;;7.85;4.85;;;21.60;99.90;;;;;;5099482;28;20192;-70
2021/06/23 11:32:07;;;;;;;4.50;4.10;;;21.70;99.90;;;;;;5104360;28;20546;-70
2021/06/23 11:35:00;;;;;;;7.50;3.80;;;21.70;99.90;;;;;;5107571;28;20653;-70
2021/06/23 11:37:33;;;;;;;4.20;3.58;;;21.70;99.90;;;;;;5110888;28;20192;-70
2021/06/23 11:40:20;;;;;;;3.95;3.00;;;21.70;99.90;;;;;;5098059;28;20198;-72
2021/06/23 11:42:47;;;;;;;4.35;3.08;;;21.80;99.90;;;;;;5097957;28;20277;-71
2021/06/23 11:45:16;;;;;;;4.70;4.22;;;21.80;99.90;;;;;;5109654;28;20534;-71
2021/06/23 11:47:43;;;;;;;4.03;2.83;;;21.80;99.90;;;;;;5101841;28;20262;-71
2021/06/23 11:50:11;;;;;;;5.45;3.15;;;21.80;99.90;;;;;;5093897;28;20202;-71
2021/06/23 11:52:39;;;;;;;4.85;3.15;;;21.90;99.90;;;;;;5093307;28;20656;-71
2021/06/23 11:55:10;;;;;;;4.63;3.42;;;21.90;99.90;;;;;;5100777;28;20205;-70
2021/06/23 11:57:39;;;;;;;3.58;3.28;;;21.90;99.90;;;;;;5098107;28;20220;-69
2021/06/23 12:00:09;;;;;;;5.68;2.67;;;21.90;99.90;;;;;;5096623;28;20205;-70
2021/06/23 12:02:36;;;;;;;5.13;3.05;;;21.90;99.90;;;;;;5091537;28;20582;-70
2021/06/23 12:05:03;;;;;;;11.73;4.10;;;21.90;99.90;;;;;;5093471;28;20205;-69
2021/06/23 12:07:30;;;;;;;3.83;3.38;;;21.90;99.90;;;;;;5104175;28;20227;-70
2021/06/23 12:09:56;;;;;;;5.00;4.20;;;21.90;99.90;;;;;;5109258;28;20201;-69
2021/06/23 12:12:23;;;;;;;4.70;3.50;;;21.90;99.90;;;;;;5105669;28;20200;-70
2021/06/23 12:14:51;;;;;;;6.95;4.30;;;21.90;99.90;;;;;;5111094;28;20215;-71
2021/06/23 12:17:18;;;;;;;5.80;3.80;;;21.90;99.90;;;;;;5100362;28;20197;-72
2021/06/23 12:19:45;;;;;;;4.68;3.28;;;21.90;99.90;;;;;;5094478;28;20205;-69
2021/06/23 12:22:12;;;;;;;5.50;3.00;;;22.00;99.90;;;;;;5097194;28;20216;-69
2021/06/23 12:24:39;;;;;;;4.65;3.75;;;22.00;99.90;;;;;;5109080;28;21116;-70
2021/06/23 12:27:07;;;;;;;6.15;3.17;;;22.00;99.90;;;;;;5098666;28;20660;-70
2021/06/23 12:29:35;;;;;;;7.00;2.90;;;22.00;99.90;;;;;;5111012;28;20227;-70
2021/06/23 12:32:04;;;;;;;4.13;3.72;;;22.00;99.90;;;;;;5104559;28;20826;-70
2021/06/23 12:34:30;;;;;;;6.45;3.55;;;22.10;99.90;;;;;;5104265;28;20208;-71
2021/06/23 12:36:57;;;;;;;6.68;3.60;;;22.10;99.90;;;;;;5104943;28;20192;-69
2021/06/23 12:39:24;;;;;;;5.73;4.50;;;22.10;99.90;;;;;;5111727;28;20195;-70
2021/06/23 12:41:51;;;;;;;4.35;3.30;;;22.20;99.90;;;;;;5105993;28;20462;-70
2021/06/23 12:44:18;;;;;;;3.40;2.80;;;22.20;99.90;;;;;;5105405;28;20564;-69
2021/06/23 12:46:45;;;;;;;5.05;3.35;;;22.20;99.90;;;;;;5105260;28;20486;-70
2021/06/23 12:49:14;;;;;;;6.15;3.70;;;22.20;99.90;;;;;;5105688;28;20203;-70
2021/06/23 12:51:41;;;;;;;4.30;3.10;;;22.20;99.90;;;;;;5105483;28;20200;-70
2021/06/23 12:54:08;;;;;;;4.13;2.93;;;22.20;99.90;;;;;;5083254;28;20443;-69
2021/06/23 12:56:34;;;;;;;3.15;2.70;;;22.30;99.90;;;;;;5096305;28;20807;-69
2021/06/23 12:59:01;;;;;;;3.53;3.23;;;22.30;99.90;;;;;;5085796;28;20232;-70
2021/06/23 13:01:28;;;;;;;3.30;3.00;;;22.30;99.90;;;;;;5093122;28;20436;-69
2021/06/23 13:03:54;;;;;;;6.77;3.60;;;22.30;99.90;;;;;;5110282;28;20444;-70
2021/06/23 13:06:22;;;;;;;4.37;3.50;;;22.30;99.90;;;;;;5115776;28;20903;-71
2021/06/23 13:08:50;;;;;;;9.77;3.90;;;22.30;99.90;;;;;;5094877;28;20482;-70